createdAt,value
2023-04-30T00:01:00.703Z,102077.25
2023-04-30T00:03:29.960Z,102077.47
2023-04-30T00:05:59.106Z,102083.81
2023-04-30T00:08:30.169Z,102077.69
2023-04-30T00:10:59.244Z,102085.56
2023-04-30T00:13:28.317Z,102082.88
2023-04-30T00:15:57.477Z,102088.97
2023-04-30T00:18:26.623Z,102083.13
2023-04-30T00:20:55.745Z,102091.00
2023-04-30T00:23:24.869Z,102089.31
2023-04-30T00:25:55.314Z,102090.28
2023-04-30T00:28:24.409Z,102089.47
2023-04-30T00:30:53.518Z,102094.28
2023-04-30T00:33:22.862Z,102105.00
2023-04-30T00:35:52.030Z,102104.03
2023-04-30T00:38:21.176Z,102109.56
2023-04-30T00:40:51.020Z,102118.00
2023-04-30T00:43:21.486Z,102114.59
2023-04-30T00:45:50.585Z,102119.94
2023-04-30T00:48:20.480Z,102110.56
2023-04-30T00:50:49.556Z,102113.97
2023-04-30T00:53:19.074Z,102117.47
2023-04-30T00:55:50.466Z,102129.22
2023-04-30T00:58:21.245Z,102127.16
2023-04-30T01:00:51.901Z,102126.66
2023-04-30T01:03:23.046Z,102127.44
2023-04-30T01:05:53.712Z,102122.88
2023-04-30T01:08:23.099Z,102134.28
2023-04-30T01:11:03.144Z,102121.16
2023-04-30T01:13:41.741Z,102129.38
2023-04-30T01:16:17.037Z,102136.78
2023-04-30T01:18:57.912Z,102140.50
2023-04-30T01:21:30.728Z,102138.03
2023-04-30T01:24:19.312Z,102144.25
2023-04-30T01:27:01.487Z,102139.16
2023-04-30T01:29:35.701Z,102141.75
2023-04-30T01:32:04.751Z,102142.41
2023-04-30T01:34:33.854Z,102143.41
2023-04-30T01:37:15.399Z,102137.59
2023-04-30T01:40:04.518Z,102140.91
2023-04-30T01:42:42.951Z,102134.38
2023-04-30T01:45:28.435Z,102138.41
2023-04-30T01:48:09.344Z,102141.28
2023-04-30T01:50:44.939Z,102142.16
2023-04-30T01:53:19.813Z,102138.56
2023-04-30T01:55:56.667Z,102140.19
2023-04-30T01:58:27.544Z,102147.22
2023-04-30T02:00:58.062Z,102147.47
2023-04-30T02:03:27.370Z,102146.75
2023-04-30T02:05:56.781Z,102155.47
2023-04-30T02:08:26.129Z,102149.72
2023-04-30T02:10:55.309Z,102158.38
2023-04-30T02:13:24.341Z,102153.38
2023-04-30T02:15:53.659Z,102156.09
2023-04-30T02:18:24.127Z,102162.25
2023-04-30T02:20:53.313Z,102162.13
2023-04-30T02:23:22.359Z,102165.00
2023-04-30T02:25:51.436Z,102165.59
2023-04-30T02:28:20.727Z,102166.56
2023-04-30T02:30:49.850Z,102169.69
2023-04-30T02:33:19.100Z,102161.16
2023-04-30T02:35:49.540Z,102168.72
2023-04-30T02:38:18.614Z,102168.69
2023-04-30T02:40:48.275Z,102171.66
2023-04-30T02:43:17.444Z,102175.22
2023-04-30T02:45:46.640Z,102180.69
2023-04-30T02:48:15.826Z,102181.00
2023-04-30T02:50:44.915Z,102181.25
2023-04-30T02:53:15.430Z,102183.75
2023-04-30T02:55:44.528Z,102174.25
2023-04-30T02:58:13.592Z,102181.47
2023-04-30T03:00:42.719Z,102181.88
2023-04-30T03:03:12.021Z,102185.19
2023-04-30T03:05:41.145Z,102183.19
2023-04-30T03:08:11.115Z,102191.03
2023-04-30T03:10:41.746Z,102186.03
2023-04-30T03:13:10.979Z,102191.22
2023-04-30T03:15:40.135Z,102181.06
2023-04-30T03:18:09.225Z,102182.44
2023-04-30T03:20:38.495Z,102186.94
2023-04-30T03:23:07.531Z,102188.66
2023-04-30T03:25:36.917Z,102193.84
2023-04-30T03:28:07.424Z,102192.22
2023-04-30T03:30:36.484Z,102196.19
2023-04-30T03:33:06.646Z,102195.41
2023-04-30T03:35:36.238Z,102188.81
2023-04-30T03:38:05.338Z,102193.31
2023-04-30T03:40:34.540Z,102194.81
2023-04-30T03:43:03.641Z,102197.75
2023-04-30T03:45:34.136Z,102199.47
2023-04-30T03:48:03.347Z,102204.53
2023-04-30T03:50:32.584Z,102208.38
2023-04-30T03:53:01.966Z,102212.81
2023-04-30T03:55:31.689Z,102216.16
2023-04-30T03:58:00.925Z,102217.78
2023-04-30T04:00:30.154Z,102218.69
2023-04-30T04:03:01.439Z,102221.28
2023-04-30T04:05:30.900Z,102219.41
2023-04-30T04:08:00.029Z,102233.00
2023-04-30T04:10:29.211Z,102225.25
2023-04-30T04:12:58.317Z,102228.00
2023-04-30T04:15:28.641Z,102229.47
2023-04-30T04:17:57.763Z,102222.31
2023-04-30T04:20:29.804Z,102221.53
2023-04-30T04:22:59.177Z,102226.69
2023-04-30T04:25:28.729Z,102224.69
2023-04-30T04:27:57.820Z,102228.19
2023-04-30T04:30:27.272Z,102232.28
2023-04-30T04:32:56.570Z,102234.84
2023-04-30T04:35:27.046Z,102227.66
2023-04-30T04:37:56.386Z,102231.84
2023-04-30T04:40:25.906Z,102229.91
2023-04-30T04:42:55.634Z,102238.53
2023-04-30T04:45:24.756Z,102234.09
2023-04-30T04:47:53.960Z,102246.06
2023-04-30T04:50:23.801Z,102241.34
2023-04-30T04:52:54.348Z,102234.38
2023-04-30T04:55:23.461Z,102241.13
2023-04-30T04:57:52.774Z,102239.84
2023-04-30T05:00:22.975Z,102234.06
2023-04-30T05:02:52.315Z,102247.09
2023-04-30T05:05:21.530Z,102253.66
2023-04-30T05:07:52.357Z,102260.94
2023-04-30T05:10:22.990Z,102255.66
2023-04-30T05:12:52.063Z,102256.75
2023-04-30T05:15:21.334Z,102266.84
2023-04-30T05:17:50.483Z,102259.66
2023-04-30T05:20:19.587Z,102255.91
2023-04-30T05:22:48.667Z,102256.34
2023-04-30T05:25:17.925Z,102259.81
2023-04-30T05:27:48.398Z,102266.25
2023-04-30T05:30:17.542Z,102265.50
2023-04-30T05:32:50.629Z,102273.50
2023-04-30T05:35:20.314Z,102266.91
2023-04-30T05:37:49.560Z,102270.88
2023-04-30T05:40:19.017Z,102264.34
2023-04-30T05:42:49.473Z,102263.72
2023-04-30T05:45:18.594Z,102264.97
2023-04-30T05:47:47.738Z,102266.91
2023-04-30T05:50:16.867Z,102260.78
2023-04-30T05:52:45.940Z,102262.91
2023-04-30T05:55:15.057Z,102255.09
2023-04-30T05:57:44.086Z,102251.91
2023-04-30T06:00:16.083Z,102261.34
2023-04-30T06:02:45.232Z,102262.81
2023-04-30T06:05:16.313Z,102260.50
2023-04-30T06:07:45.708Z,102262.03
2023-04-30T06:10:14.774Z,102259.56
2023-04-30T06:12:43.823Z,102262.13
2023-04-30T06:15:14.341Z,102264.25
2023-04-30T06:17:43.438Z,102271.84
2023-04-30T06:20:14.526Z,102270.91
2023-04-30T06:22:43.627Z,102273.69
2023-04-30T06:25:12.745Z,102274.06
2023-04-30T06:27:41.879Z,102272.94
2023-04-30T06:30:13.226Z,102271.59
2023-04-30T06:32:42.417Z,102268.66
2023-04-30T06:35:11.737Z,102272.63
2023-04-30T06:37:40.917Z,102274.66
2023-04-30T06:40:10.890Z,102276.09
2023-04-30T06:42:40.667Z,102274.06
2023-04-30T06:45:11.319Z,102278.63
2023-04-30T06:47:42.922Z,102281.44
2023-04-30T06:50:12.556Z,102281.16
2023-04-30T06:52:41.631Z,102278.06
2023-04-30T06:55:10.816Z,102294.00
2023-04-30T06:57:39.925Z,102293.94
2023-04-30T07:00:09.832Z,102284.13
2023-04-30T07:02:39.759Z,102291.09
2023-04-30T07:05:11.428Z,102292.84
2023-04-30T07:07:40.486Z,102290.41
2023-04-30T07:10:09.915Z,102286.91
2023-04-30T07:12:40.140Z,102287.63
2023-04-30T07:15:10.048Z,102299.06
2023-04-30T07:17:39.795Z,102294.47
2023-04-30T07:20:11.710Z,102294.94
2023-04-30T07:22:40.796Z,102301.13
2023-04-30T07:25:11.089Z,102296.44
2023-04-30T07:27:40.616Z,102292.69
2023-04-30T07:30:10.979Z,102298.59
2023-04-30T07:32:41.450Z,102300.91
2023-04-30T07:35:12.168Z,102298.38
2023-04-30T07:37:41.615Z,102299.44
2023-04-30T07:40:19.306Z,102302.81
2023-04-30T07:42:54.334Z,102310.00
2023-04-30T07:45:23.472Z,102301.50
2023-04-30T07:47:52.832Z,102293.59
2023-04-30T07:50:23.295Z,102310.13
2023-04-30T07:52:52.394Z,102310.47
2023-04-30T07:55:21.592Z,102316.47
2023-04-30T07:57:50.706Z,102303.81
2023-04-30T08:00:19.993Z,102307.75
2023-04-30T08:02:49.881Z,102310.50
2023-04-30T08:05:19.207Z,102316.41
2023-04-30T08:07:49.738Z,102320.16
2023-04-30T08:10:18.918Z,102313.88
2023-04-30T08:12:48.071Z,102323.19
2023-04-30T08:15:17.282Z,102309.28
2023-04-30T08:17:46.498Z,102309.38
2023-04-30T08:20:15.686Z,102313.63
2023-04-30T08:22:44.927Z,102306.41
2023-04-30T08:25:15.524Z,102317.94
2023-04-30T08:27:44.656Z,102317.19
2023-04-30T08:30:13.805Z,102324.25
2023-04-30T08:32:42.989Z,102314.25
2023-04-30T08:35:12.290Z,102317.22
2023-04-30T08:37:41.355Z,102313.34
2023-04-30T08:40:12.050Z,102315.44
2023-04-30T08:42:49.443Z,102315.25
2023-04-30T08:45:19.826Z,102316.75
2023-04-30T08:47:50.360Z,102318.25
2023-04-30T08:50:19.785Z,102305.47
2023-04-30T08:52:48.914Z,102303.00
2023-04-30T08:55:17.979Z,102307.69
2023-04-30T08:57:48.582Z,102303.84
2023-04-30T09:00:17.941Z,102313.09
2023-04-30T09:02:47.870Z,102312.19
2023-04-30T09:05:17.667Z,102318.03
2023-04-30T09:10:21.629Z,102327.00
2023-04-30T09:13:02.592Z,102323.78
2023-04-30T09:15:32.591Z,102315.91
2023-04-30T09:18:14.319Z,102318.41
2023-04-30T09:20:57.210Z,102322.06
2023-04-30T09:23:27.057Z,102319.31
2023-04-30T09:25:56.561Z,102313.56
2023-04-30T09:28:28.800Z,102313.97
2023-04-30T09:30:59.308Z,102310.75
2023-04-30T09:33:30.376Z,102322.53
2023-04-30T09:36:09.504Z,102322.91
2023-04-30T09:38:38.623Z,102314.31
2023-04-30T09:41:08.713Z,102311.75
2023-04-30T09:43:46.691Z,102298.00
2023-04-30T09:46:16.490Z,102295.31
2023-04-30T09:48:46.535Z,102305.72
2023-04-30T09:51:15.895Z,102299.28
2023-04-30T09:53:45.576Z,102297.03
2023-04-30T09:56:15.835Z,102298.72
2023-04-30T09:58:50.966Z,102293.84
2023-04-30T10:01:21.041Z,102287.28
2023-04-30T10:03:51.185Z,102293.50
2023-04-30T10:06:22.510Z,102283.00
2023-04-30T10:08:54.725Z,102280.94
2023-04-30T10:11:31.407Z,102282.13
2023-04-30T10:14:04.568Z,102279.31
2023-04-30T10:16:41.282Z,102268.13
2023-04-30T10:19:15.567Z,102270.69
2023-04-30T10:21:46.873Z,102270.34
2023-04-30T10:24:19.213Z,102272.66
2023-04-30T10:26:49.366Z,102263.06
2023-04-30T10:29:20.255Z,102263.59
2023-04-30T10:31:50.916Z,102261.34
2023-04-30T10:34:26.927Z,102265.06
2023-04-30T10:37:00.966Z,102253.44
2023-04-30T10:39:30.676Z,102253.28
2023-04-30T10:42:04.552Z,102255.00
2023-04-30T10:44:37.370Z,102266.38
2023-04-30T10:47:08.038Z,102258.25
2023-04-30T10:49:37.258Z,102252.63
2023-04-30T10:52:06.860Z,102249.94
2023-04-30T10:54:38.060Z,102248.16
2023-04-30T10:57:15.110Z,102241.16
2023-04-30T10:59:52.815Z,102244.47
2023-04-30T11:02:22.452Z,102240.72
2023-04-30T11:05:22.261Z,102226.38
2023-04-30T11:07:52.613Z,102238.16
2023-04-30T11:10:24.775Z,102233.88
2023-04-30T11:12:55.744Z,102234.72
2023-04-30T11:15:32.633Z,102214.59
2023-04-30T11:18:01.808Z,102231.16
2023-04-30T11:20:31.156Z,102228.09
2023-04-30T11:23:21.810Z,102223.47
2023-04-30T11:26:00.929Z,102225.34
2023-04-30T11:28:34.998Z,102226.31
2023-04-30T11:31:06.412Z,102220.50
2023-04-30T11:33:37.553Z,102223.22
2023-04-30T11:36:08.493Z,102220.47
2023-04-30T11:38:40.021Z,102216.38
2023-04-30T11:41:13.390Z,102217.69
2023-04-30T11:43:43.614Z,102213.38
2023-04-30T11:46:17.646Z,102220.66
2023-04-30T11:48:48.319Z,102207.03
2023-04-30T11:51:20.406Z,102212.56
2023-04-30T11:53:51.995Z,102201.53
2023-04-30T11:56:24.504Z,102208.97
2023-04-30T11:58:56.055Z,102206.06
2023-04-30T12:01:29.596Z,102212.97
2023-04-30T12:04:00.402Z,102210.03
2023-04-30T12:06:31.598Z,102195.41
2023-04-30T12:09:04.745Z,102204.34
2023-04-30T12:11:35.979Z,102200.13
2023-04-30T12:14:11.002Z,102202.66
2023-04-30T12:16:49.498Z,102194.38
2023-04-30T12:19:20.905Z,102188.50
2023-04-30T12:21:51.379Z,102192.38
2023-04-30T12:24:21.750Z,102196.78
2023-04-30T12:26:54.828Z,102188.03
2023-04-30T12:29:25.935Z,102186.53
2023-04-30T12:31:58.345Z,102191.47
2023-04-30T12:34:31.486Z,102189.59
2023-04-30T12:37:04.877Z,102174.47
2023-04-30T12:39:36.900Z,102178.44
2023-04-30T12:42:06.309Z,102174.97
2023-04-30T12:44:45.898Z,102177.38
2023-04-30T12:47:18.779Z,102172.16
2023-04-30T12:49:49.257Z,102167.66
2023-04-30T12:52:19.618Z,102175.69
2023-04-30T12:54:49.851Z,102171.75
2023-04-30T12:57:20.055Z,102166.25
2023-04-30T13:00:01.295Z,102160.59
2023-04-30T13:02:33.310Z,102156.56
2023-04-30T13:05:04.063Z,102152.38
2023-04-30T13:07:41.056Z,102158.53
2023-04-30T13:10:13.031Z,102155.13
2023-04-30T13:12:43.352Z,102151.09
2023-04-30T13:15:12.865Z,102141.50
2023-04-30T13:17:43.345Z,102146.75
2023-04-30T13:20:13.002Z,102141.84
2023-04-30T13:22:42.085Z,102135.06
2023-04-30T13:25:12.082Z,102142.13
2023-04-30T13:27:41.156Z,102138.00
2023-04-30T13:30:11.228Z,102128.03
2023-04-30T13:32:40.351Z,102127.09
2023-04-30T13:35:12.389Z,102125.91
2023-04-30T13:37:42.207Z,102123.44
2023-04-30T13:40:12.158Z,102116.75
2023-04-30T13:42:42.896Z,102116.94
2023-04-30T13:45:12.921Z,102116.28
2023-04-30T13:47:42.129Z,102118.03
2023-04-30T13:50:13.219Z,102108.59
2023-04-30T13:52:42.298Z,102110.78
2023-04-30T13:55:12.051Z,102101.19
2023-04-30T13:57:41.152Z,102112.25
2023-04-30T14:00:11.552Z,102104.06
2023-04-30T14:02:41.031Z,102106.66
2023-04-30T14:05:12.188Z,102090.09
2023-04-30T14:07:41.333Z,102094.81
2023-04-30T14:10:11.087Z,102089.53
2023-04-30T14:12:40.237Z,102095.69
2023-04-30T14:15:10.277Z,102090.38
2023-04-30T14:17:39.655Z,102089.16
2023-04-30T14:20:10.634Z,102075.22
2023-04-30T14:22:41.377Z,102077.56
2023-04-30T14:25:11.889Z,102077.31
2023-04-30T14:27:42.185Z,102076.59
2023-04-30T14:30:12.047Z,102081.94
2023-04-30T14:32:41.321Z,102074.09
2023-04-30T14:35:11.258Z,102076.44
2023-04-30T14:37:42.071Z,102066.94
2023-04-30T14:40:12.314Z,102070.06
2023-04-30T14:42:41.413Z,102066.03
2023-04-30T14:45:11.880Z,102070.78
2023-04-30T14:47:41.054Z,102075.56
2023-04-30T14:50:11.323Z,102069.75
2023-04-30T14:52:42.100Z,102065.63
2023-04-30T14:55:11.796Z,102069.91
2023-04-30T14:57:40.941Z,102066.28
2023-04-30T15:00:12.039Z,102058.50
2023-04-30T15:02:41.296Z,102060.69
2023-04-30T15:05:11.480Z,102061.22
2023-04-30T15:07:42.122Z,102056.94
2023-04-30T15:10:12.043Z,102050.78
2023-04-30T15:12:41.230Z,102056.94
2023-04-30T15:15:11.104Z,102055.38
2023-04-30T15:17:40.304Z,102043.72
2023-04-30T15:20:10.787Z,102049.56
2023-04-30T15:22:42.437Z,102046.66
2023-04-30T15:25:12.086Z,102039.63
2023-04-30T15:27:41.554Z,102048.16
2023-04-30T15:30:11.538Z,102035.22
2023-04-30T15:32:40.753Z,102039.91
2023-04-30T15:35:10.604Z,102033.88
2023-04-30T15:37:41.113Z,102041.41
2023-04-30T15:40:15.155Z,102039.13
2023-04-30T15:42:44.558Z,102037.38
2023-04-30T15:45:14.132Z,102037.97
2023-04-30T15:47:43.470Z,102030.47
2023-04-30T15:50:13.233Z,102034.84
2023-04-30T15:52:43.674Z,102025.03
2023-04-30T15:55:12.750Z,102017.63
2023-04-30T15:57:42.196Z,102014.41
2023-04-30T16:00:14.439Z,102019.47
2023-04-30T16:02:43.701Z,102012.84
2023-04-30T16:05:13.064Z,102011.03
2023-04-30T16:07:45.070Z,102012.88
2023-04-30T16:10:14.685Z,102015.50
2023-04-30T16:12:43.755Z,102005.91
2023-04-30T16:15:13.583Z,102009.56
2023-04-30T16:17:42.999Z,102002.25
2023-04-30T16:20:13.383Z,102001.28
2023-04-30T16:22:43.996Z,101999.25
2023-04-30T16:25:13.258Z,102000.44
2023-04-30T16:27:43.271Z,101995.91
2023-04-30T16:30:13.252Z,101989.75
2023-04-30T16:32:42.438Z,101988.28
2023-04-30T16:35:12.000Z,101986.25
2023-04-30T16:37:41.089Z,101990.28
2023-04-30T16:40:12.555Z,101989.00
2023-04-30T16:42:41.664Z,101988.72
2023-04-30T16:45:11.548Z,101984.72
2023-04-30T16:47:40.709Z,101984.13
2023-04-30T16:50:10.769Z,101976.56
2023-04-30T16:52:39.949Z,101975.88
2023-04-30T16:55:11.448Z,101974.03
2023-04-30T16:57:40.561Z,101977.88
2023-04-30T17:00:12.482Z,101968.59
2023-04-30T17:02:42.578Z,101975.25
2023-04-30T17:05:12.366Z,101969.31
2023-04-30T17:07:42.389Z,101963.31
2023-04-30T17:10:14.765Z,101962.16
2023-04-30T17:12:44.484Z,101967.25
2023-04-30T17:15:13.699Z,101964.84
2023-04-30T17:17:43.029Z,101965.56
2023-04-30T17:20:13.305Z,101957.63
2023-04-30T17:22:42.429Z,101958.72
2023-04-30T17:25:13.696Z,101963.63
2023-04-30T17:27:42.771Z,101964.63
2023-04-30T17:30:12.141Z,101957.44
2023-04-30T17:32:41.236Z,101963.88
2023-04-30T17:35:10.853Z,101961.16
2023-04-30T17:37:39.950Z,101963.84
2023-04-30T17:40:10.516Z,101959.63
2023-04-30T17:42:41.025Z,101952.13
2023-04-30T17:45:11.034Z,101955.66
2023-04-30T17:47:40.243Z,101950.03
2023-04-30T17:50:10.307Z,101947.59
2023-04-30T17:52:39.403Z,101945.09
2023-04-30T17:55:09.350Z,101954.88
2023-04-30T17:57:40.156Z,101957.41
2023-04-30T18:00:10.387Z,101963.66
2023-04-30T18:02:45.781Z,101956.63
2023-04-30T18:05:15.234Z,101964.34
2023-04-30T18:07:44.315Z,101962.44
2023-04-30T18:10:13.436Z,101963.25
2023-04-30T18:12:47.043Z,101962.88
2023-04-30T18:15:16.136Z,101957.72
2023-04-30T18:17:45.636Z,101966.47
2023-04-30T18:20:14.728Z,101961.66
2023-04-30T18:22:45.570Z,101966.13
2023-04-30T18:25:17.075Z,101965.41
2023-04-30T18:27:47.680Z,101963.47
2023-04-30T18:30:16.725Z,101965.22
2023-04-30T18:32:45.924Z,101964.63
2023-04-30T18:35:14.986Z,101960.53
2023-04-30T18:37:44.052Z,101968.28
2023-04-30T18:40:13.564Z,101973.13
2023-04-30T18:42:42.654Z,101966.13
2023-04-30T18:45:14.469Z,101975.94
2023-04-30T18:47:43.795Z,101970.72
2023-04-30T18:50:17.429Z,101968.31
2023-04-30T18:52:46.699Z,101970.03
2023-04-30T18:55:15.822Z,101970.03
2023-04-30T18:57:45.149Z,101976.88
2023-04-30T19:00:16.305Z,101975.13
2023-04-30T19:02:45.557Z,101978.91
2023-04-30T19:05:15.661Z,101981.84
2023-04-30T19:07:45.077Z,101985.22
2023-04-30T19:10:14.466Z,101982.91
2023-04-30T19:12:43.915Z,101980.03
2023-04-30T19:15:15.500Z,101989.91
2023-04-30T19:17:44.710Z,101985.50
2023-04-30T19:20:14.640Z,101986.78
2023-04-30T19:22:43.778Z,101988.72
2023-04-30T19:25:13.312Z,101982.53
2023-04-30T19:27:44.009Z,101992.03
2023-04-30T19:30:16.113Z,101989.91
2023-04-30T19:32:48.148Z,101985.81
2023-04-30T19:35:17.509Z,101989.91
2023-04-30T19:37:46.614Z,101985.09
2023-04-30T19:40:18.601Z,101983.41
2023-04-30T19:42:47.883Z,101995.44
2023-04-30T19:45:18.761Z,101987.56
2023-04-30T19:47:47.948Z,101991.03
2023-04-30T19:50:17.330Z,101997.63
2023-04-30T19:52:46.483Z,101997.63
2023-04-30T19:55:15.722Z,101986.88
2023-04-30T19:57:44.880Z,101998.69
2023-04-30T20:00:15.006Z,101989.63
2023-04-30T20:02:47.524Z,101990.22
2023-04-30T20:05:16.777Z,101987.03
2023-04-30T20:07:45.958Z,101993.22
2023-04-30T20:10:15.145Z,101988.63
2023-04-30T20:12:44.359Z,101984.94
2023-04-30T20:15:14.291Z,101998.84
2023-04-30T20:17:45.660Z,101993.34
2023-04-30T20:20:15.550Z,102000.34
2023-04-30T20:22:44.756Z,101995.00
2023-04-30T20:25:14.185Z,101999.63
2023-04-30T20:27:43.702Z,102010.03
2023-04-30T20:30:13.360Z,102012.69
2023-04-30T20:32:44.369Z,101996.94
2023-04-30T20:35:13.632Z,101997.69
2023-04-30T20:37:42.816Z,101993.56
2023-04-30T20:40:13.118Z,101990.78
2023-04-30T20:42:42.282Z,101986.28
2023-04-30T20:45:12.499Z,101982.34
2023-04-30T20:47:41.684Z,101987.00
2023-04-30T20:50:13.620Z,101987.50
2023-04-30T20:52:43.180Z,101978.44
2023-04-30T20:55:15.088Z,101976.59
2023-04-30T20:57:44.401Z,101972.28
2023-04-30T21:00:14.414Z,101969.53
2023-04-30T21:02:43.572Z,101968.88
2023-04-30T21:05:14.614Z,101973.59
2023-04-30T21:07:43.807Z,101974.38
2023-04-30T21:10:13.011Z,101966.38
2023-04-30T21:12:42.221Z,101964.91
2023-04-30T21:15:12.882Z,101970.16
2023-04-30T21:17:42.037Z,101964.00
2023-04-30T21:20:13.709Z,101964.25
2023-04-30T21:22:42.796Z,101968.19
2023-04-30T21:25:12.221Z,101967.34
2023-04-30T21:27:41.635Z,101967.06
2023-04-30T21:30:11.260Z,101968.94
2023-04-30T21:32:43.973Z,101971.31
2023-04-30T21:35:15.059Z,101981.31
2023-04-30T21:37:44.310Z,101972.41
2023-04-30T21:40:13.837Z,101974.06
2023-04-30T21:42:42.977Z,101976.69
2023-04-30T21:45:13.442Z,101972.31
2023-04-30T21:47:44.583Z,101972.59
2023-04-30T21:50:15.386Z,101965.41
2023-04-30T21:52:44.846Z,101966.91
2023-04-30T21:55:14.026Z,101964.47
2023-04-30T21:57:43.127Z,101962.00
2023-04-30T22:00:14.489Z,101958.56
2023-04-30T22:02:50.930Z,101961.31
2023-04-30T22:05:21.963Z,101963.25
2023-04-30T22:07:51.073Z,101958.19
2023-04-30T22:10:20.669Z,101958.59
2023-04-30T22:12:49.817Z,101953.66
2023-04-30T22:15:19.200Z,101955.22
2023-04-30T22:17:49.595Z,101951.84
2023-04-30T22:20:20.324Z,101947.81
2023-04-30T22:22:49.516Z,101950.47
2023-04-30T22:25:19.776Z,101941.56
2023-04-30T22:27:48.892Z,101938.75
2023-04-30T22:30:18.997Z,101934.38
2023-04-30T22:32:49.743Z,101931.75
2023-04-30T22:35:21.149Z,101939.34
2023-04-30T22:37:50.288Z,101941.78
2023-04-30T22:40:20.553Z,101933.22
2023-04-30T22:42:50.010Z,101932.59
2023-04-30T22:45:19.248Z,101936.47
2023-04-30T22:47:48.556Z,101923.19
2023-04-30T22:50:17.787Z,101922.34
2023-04-30T22:52:48.314Z,101924.25
2023-04-30T22:55:17.831Z,101930.47
2023-04-30T22:57:46.861Z,101920.16
2023-04-30T23:00:18.143Z,101921.16
2023-04-30T23:02:47.336Z,101919.31
2023-04-30T23:05:17.245Z,101910.28
2023-04-30T23:07:48.711Z,101914.84
2023-04-30T23:10:18.151Z,101913.41
2023-04-30T23:12:47.235Z,101911.72
2023-04-30T23:15:17.015Z,101911.16
2023-04-30T23:17:46.121Z,101904.13
2023-04-30T23:20:15.805Z,101906.66
2023-04-30T23:22:44.938Z,101902.31
2023-04-30T23:25:15.425Z,101902.31
2023-04-30T23:27:45.336Z,101903.59
2023-04-30T23:30:14.614Z,101901.16
2023-04-30T23:32:43.709Z,101893.88
2023-04-30T23:35:12.786Z,101891.59
2023-04-30T23:37:41.830Z,101888.31
2023-04-30T23:40:11.388Z,101885.97
2023-04-30T23:42:41.903Z,101886.56
2023-04-30T23:45:11.589Z,101879.59
2023-04-30T23:47:40.838Z,101875.59
2023-04-30T23:50:11.132Z,101877.34
2023-04-30T23:52:40.171Z,101872.22
2023-04-30T23:55:10.068Z,101871.66
2023-04-30T23:57:39.160Z,101869.97
